createdAt,value
2023-08-11T00:01:40.430Z,98902.88
2023-08-11T00:07:05.741Z,98894.44
2023-08-11T00:12:30.402Z,98904.94
2023-08-11T00:17:58.410Z,98899.38
2023-08-11T00:23:23.494Z,98903.81
2023-08-11T00:28:48.412Z,98904.66
2023-08-11T00:34:16.437Z,98907.38
2023-08-11T00:39:41.413Z,98910.09
2023-08-11T00:45:07.424Z,98912.97
2023-08-11T00:50:35.376Z,98924.31
2023-08-11T00:55:59.400Z,98923.16
2023-08-11T01:01:24.435Z,98919.25
2023-08-11T01:06:58.401Z,98934.63
2023-08-11T01:12:35.423Z,98930.34
2023-08-11T01:18:03.450Z,98936.75
2023-08-11T01:23:32.433Z,98935.88
2023-08-11T01:28:57.394Z,98915.41
2023-08-11T01:34:22.431Z,98921.66
2023-08-11T01:39:49.409Z,98915.38
2023-08-11T01:45:15.400Z,98919.75
2023-08-11T01:50:41.458Z,98922.41
2023-08-11T01:56:09.436Z,98919.50
2023-08-11T02:01:40.461Z,98918.63
2023-08-11T02:07:05.694Z,98915.56
2023-08-11T02:12:33.428Z,98918.94
2023-08-11T02:17:58.445Z,98919.41
2023-08-11T02:23:22.475Z,98929.31
2023-08-11T02:28:51.504Z,98927.09
2023-08-11T02:34:17.445Z,98922.19
2023-08-11T02:39:42.448Z,98923.31
2023-08-11T02:45:11.484Z,98921.09
2023-08-11T02:50:36.509Z,98924.28
2023-08-11T02:56:00.444Z,98929.34
2023-08-11T03:01:35.578Z,98933.19
2023-08-11T03:07:00.428Z,98935.53
2023-08-11T03:12:27.476Z,98936.13
2023-08-11T03:17:55.490Z,98934.75
2023-08-11T03:23:21.488Z,98936.22
2023-08-11T03:28:47.468Z,98931.97
2023-08-11T03:34:15.514Z,98929.75
2023-08-11T03:39:40.436Z,98939.00
2023-08-11T03:45:05.514Z,98952.81
2023-08-11T03:50:34.567Z,98959.22
2023-08-11T03:55:59.496Z,98956.84
2023-08-11T04:01:30.499Z,98950.88
2023-08-11T04:06:59.499Z,98958.16
2023-08-11T04:12:25.588Z,98961.16
2023-08-11T04:17:50.519Z,98965.84
2023-08-11T04:23:18.508Z,98958.91
2023-08-11T04:28:44.602Z,98959.91
2023-08-11T04:34:11.501Z,98966.31
2023-08-11T04:39:39.525Z,98966.31
2023-08-11T04:45:04.557Z,98967.47
2023-08-11T04:50:31.532Z,98959.22
2023-08-11T04:55:59.510Z,98974.28
2023-08-11T05:01:31.524Z,98971.25
2023-08-11T05:07:03.560Z,98986.44
2023-08-11T05:12:31.526Z,98992.53
2023-08-11T05:17:55.587Z,98981.44
2023-08-11T05:23:22.251Z,98988.91
2023-08-11T05:28:50.538Z,98984.59
2023-08-11T05:34:17.529Z,98989.88
2023-08-11T05:39:41.598Z,98997.22
2023-08-11T05:45:09.546Z,98997.69
2023-08-11T05:50:33.559Z,99005.72
2023-08-11T05:55:58.546Z,99008.84
2023-08-11T06:01:33.647Z,99003.72
2023-08-11T06:06:59.634Z,98997.72
2023-08-11T06:12:23.606Z,98989.69
2023-08-11T06:17:56.667Z,98991.47
2023-08-11T06:23:20.604Z,98991.50
2023-08-11T06:28:45.578Z,98989.00
2023-08-11T06:34:13.575Z,98991.63
2023-08-11T06:39:38.599Z,98996.56
2023-08-11T06:45:02.621Z,98985.25
2023-08-11T06:50:30.567Z,98981.38
2023-08-11T06:55:54.629Z,98987.78
2023-08-11T07:01:19.634Z,98984.88
2023-08-11T07:06:46.598Z,98984.16
2023-08-11T07:12:11.611Z,98987.47
2023-08-11T07:17:36.647Z,98976.50
2023-08-11T07:23:05.763Z,98980.78
2023-08-11T07:28:29.616Z,98983.88
2023-08-11T07:33:54.597Z,98982.22
2023-08-11T07:39:23.789Z,98983.78
2023-08-11T07:44:51.617Z,98980.47
2023-08-11T07:50:15.671Z,98983.41
2023-08-11T07:55:36.627Z,98976.56
2023-08-11T08:01:01.641Z,98971.22
2023-08-11T08:06:25.623Z,98981.44
2023-08-11T08:11:55.646Z,98973.94
2023-08-11T08:17:21.638Z,98962.28
2023-08-11T08:22:47.624Z,98957.50
2023-08-11T08:28:15.681Z,98972.59
2023-08-11T08:33:40.686Z,98968.31
2023-08-11T08:39:06.098Z,98953.78
2023-08-11T08:44:35.654Z,98957.94
2023-08-11T08:50:01.665Z,98963.72
2023-08-11T08:55:27.672Z,98963.34
2023-08-11T09:00:57.659Z,98959.63
2023-08-11T09:06:23.661Z,98968.75
2023-08-11T09:11:48.729Z,98954.25
2023-08-11T09:17:22.712Z,98950.44
2023-08-11T09:22:47.709Z,98956.09
2023-08-11T09:28:11.692Z,98957.75
2023-08-11T09:33:40.672Z,98954.13
2023-08-11T09:39:05.735Z,98951.16
2023-08-11T09:44:31.684Z,98950.25
2023-08-11T09:49:58.666Z,98965.59
2023-08-11T09:55:25.691Z,98959.22
2023-08-11T10:00:49.701Z,98945.84
2023-08-11T10:06:20.702Z,98951.84
2023-08-11T10:11:48.700Z,98958.75
2023-08-11T10:17:21.730Z,98965.88
2023-08-11T10:22:49.719Z,98960.94
2023-08-11T10:28:17.717Z,98947.28
2023-08-11T10:33:42.738Z,98943.84
2023-08-11T10:39:21.749Z,98944.31
2023-08-11T10:44:46.706Z,98943.41
2023-08-11T10:50:11.750Z,98937.47
2023-08-11T10:55:43.722Z,98932.44
2023-08-11T11:01:07.830Z,98925.66
2023-08-11T11:06:32.743Z,98920.84
2023-08-11T11:12:01.732Z,98926.69
2023-08-11T11:17:26.770Z,98924.50
2023-08-11T11:22:53.800Z,98919.75
2023-08-11T11:28:21.721Z,98910.81
2023-08-11T11:33:47.797Z,98909.41
2023-08-11T11:39:15.770Z,98905.28
2023-08-11T11:44:42.811Z,98899.38
2023-08-11T11:50:08.858Z,98901.69
2023-08-11T11:55:34.819Z,98894.63
2023-08-11T12:01:03.863Z,98890.44
2023-08-11T12:06:28.760Z,98898.59
2023-08-11T12:11:53.805Z,98899.88
2023-08-11T12:17:27.786Z,98891.25
2023-08-11T12:22:52.913Z,98890.34
2023-08-11T12:28:16.808Z,98883.91
2023-08-11T12:33:45.841Z,98881.94
2023-08-11T12:39:09.826Z,98877.56
2023-08-11T12:44:34.813Z,98874.88
2023-08-11T12:50:01.808Z,98870.06
2023-08-11T12:55:26.855Z,98867.06
2023-08-11T13:00:50.820Z,98871.41
2023-08-11T13:06:18.821Z,98865.72
2023-08-11T13:11:42.845Z,98869.41
2023-08-11T13:17:07.850Z,98869.75
2023-08-11T13:22:34.897Z,98859.19
2023-08-11T13:27:59.904Z,98864.81
2023-08-11T13:33:23.883Z,98859.19
2023-08-11T13:38:51.823Z,98862.25
2023-08-11T13:44:15.883Z,98852.84
2023-08-11T13:49:40.862Z,98852.75
2023-08-11T13:55:17.856Z,98844.78
2023-08-11T14:00:42.918Z,98844.22
2023-08-11T14:06:06.870Z,98843.53
2023-08-11T14:11:34.936Z,98839.94
2023-08-11T14:16:58.882Z,98834.94
2023-08-11T14:22:23.906Z,98837.69
2023-08-11T14:27:50.902Z,98824.38
2023-08-11T14:33:15.979Z,98823.19
2023-08-11T14:38:40.021Z,98818.72
2023-08-11T14:44:07.952Z,98820.66
2023-08-11T14:49:31.919Z,98806.38
2023-08-11T14:54:57.932Z,98802.13
2023-08-11T15:00:25.900Z,98804.63
2023-08-11T15:05:50.938Z,98808.47
2023-08-11T15:11:14.965Z,98798.88
2023-08-11T15:16:43.031Z,98792.44
2023-08-11T15:22:08.144Z,98786.16
2023-08-11T15:27:32.944Z,98791.59
2023-08-11T15:32:59.966Z,98782.78
2023-08-11T15:38:24.947Z,98774.19
2023-08-11T15:43:48.997Z,98767.94
2023-08-11T15:49:23.998Z,98766.09
2023-08-11T15:54:48.942Z,98764.34
2023-08-11T16:00:15.200Z,98769.53
2023-08-11T16:05:42.993Z,98761.94
2023-08-11T16:11:08.031Z,98764.72
2023-08-11T16:16:39.019Z,98747.78
2023-08-11T16:22:07.021Z,98750.34
2023-08-11T16:27:31.997Z,98742.56
2023-08-11T16:32:57.096Z,98738.16
2023-08-11T16:38:23.992Z,98741.66
2023-08-11T16:43:49.166Z,98736.06
2023-08-11T16:49:14.024Z,98731.72
2023-08-11T16:54:42.052Z,98728.19
2023-08-11T17:00:08.059Z,98731.00
2023-08-11T17:05:33.034Z,98724.56
2023-08-11T17:11:01.028Z,98730.63
2023-08-11T17:16:27.098Z,98724.53
2023-08-11T17:21:51.032Z,98713.59
2023-08-11T17:27:19.067Z,98708.50
2023-08-11T17:32:50.033Z,98705.22
2023-08-11T17:38:17.050Z,98700.78
2023-08-11T17:43:44.401Z,98704.94
2023-08-11T17:49:09.061Z,98702.34
2023-08-11T17:54:33.070Z,98712.28
2023-08-11T18:00:01.163Z,98714.97
2023-08-11T18:05:30.076Z,98716.44
2023-08-11T18:10:55.070Z,98714.72
2023-08-11T18:16:22.098Z,98727.38
2023-08-11T18:21:47.123Z,98734.44
2023-08-11T18:27:11.101Z,98725.91
2023-08-11T18:32:40.128Z,98730.16
2023-08-11T18:38:05.128Z,98732.09
2023-08-11T18:43:30.119Z,98742.66
2023-08-11T18:48:58.129Z,98745.13
2023-08-11T18:54:23.288Z,98749.22
2023-08-11T18:59:47.139Z,98738.88
2023-08-11T19:05:16.190Z,98748.47
2023-08-11T19:10:40.115Z,98752.41
2023-08-11T19:16:06.141Z,98751.31
2023-08-11T19:21:33.144Z,98743.59
2023-08-11T19:26:58.158Z,98750.16
2023-08-11T19:32:24.183Z,98751.16
2023-08-11T19:37:52.165Z,98745.22
2023-08-11T19:43:18.181Z,98749.19
2023-08-11T19:48:43.157Z,98738.91
2023-08-11T19:54:10.186Z,98744.91
2023-08-11T19:59:35.192Z,98745.38
2023-08-11T20:05:00.210Z,98740.50
2023-08-11T20:10:28.167Z,98744.47
2023-08-11T20:15:54.198Z,98742.75
2023-08-11T20:21:19.213Z,98743.03
2023-08-11T20:26:46.196Z,98738.13
2023-08-11T20:32:12.177Z,98735.72
2023-08-11T20:37:37.244Z,98725.66
2023-08-11T20:43:05.234Z,98720.06
2023-08-11T20:48:29.202Z,98714.91
2023-08-11T20:53:54.197Z,98712.50
2023-08-11T20:59:21.222Z,98704.00
2023-08-11T21:04:46.223Z,98691.66
2023-08-11T21:10:10.229Z,98691.38
2023-08-11T21:15:38.238Z,98692.34
2023-08-11T21:21:02.200Z,98696.06
2023-08-11T21:26:27.227Z,98698.03
2023-08-11T21:31:54.283Z,98701.75
2023-08-11T21:37:19.244Z,98704.56
2023-08-11T21:42:43.241Z,98696.88
2023-08-11T21:48:11.373Z,98699.22
2023-08-11T21:53:35.239Z,98708.81
2023-08-11T21:59:00.260Z,98695.50
2023-08-11T22:04:27.265Z,98697.31
2023-08-11T22:09:53.293Z,98696.56
2023-08-11T22:15:18.256Z,98705.50
2023-08-11T22:20:53.295Z,98699.00
2023-08-11T22:26:18.287Z,98704.31
2023-08-11T22:31:42.294Z,98708.84
2023-08-11T22:37:13.437Z,98704.91
2023-08-11T22:42:39.261Z,98699.88
2023-08-11T22:48:04.330Z,98699.00
2023-08-11T22:53:32.314Z,98702.41
2023-08-11T23:04:22.318Z,98682.72
2023-08-11T23:09:50.284Z,98687.38
2023-08-11T23:15:14.299Z,98692.56
2023-08-11T23:20:41.130Z,98690.50
2023-08-11T23:26:16.331Z,98705.69
2023-08-11T23:31:43.404Z,98701.72
2023-08-11T23:37:08.544Z,98709.75
2023-08-11T23:42:38.296Z,98710.41
2023-08-11T23:48:03.420Z,98711.69
2023-08-11T23:53:28.420Z,98704.13
2023-08-11T23:58:56.361Z,98703.75
